Portada
METAR-TAF:

METAR-TAF

Aeropuertos :

Istres, Francia

latitud: 43-31N, longitud: 004-56E, altitud: 23 m

Observación

El informe se hizo hace 19 minutos, a las 02:00 UTC
Viento 3 kt del este-noreste
Temperatura 7°C
Humedad 81%
Presión 1029 hPa
Visibilidad 10 km o más
sin nubes por debajo de 1500 m y sin presencia de cumulonimbus.

METAR: LFMI 020200Z AUTO 06003KT CAVOK 07/04 Q1029 NOSIG

Hora: 03:19 (02:19 UTC)

Pronóstico

El informe se hizo hace 6 horas y 19 minutos, a las 20:00 UTC
Pronóstico válido del 01 a las 21 UTC al 02 a las 21 UTC
Viento 5 kt del noreste
Visibilidad 10 km o más
sin nubes por debajo de 1500 m y sin presencia de cumulonimbus.
Temporalmente
del 02 a las 13 UTC al 02 a las 19 UTC
Viento 10 kt del sur
Temporalmente
del 02 a las 19 UTC al 02 a las 21 UTC
Viento 3 kt con dirección variable

TAF: LFMI 012000Z 0121/0221 04005KT CAVOK TX18/0214Z TN03/0206Z TEMPO 0213/0219 17010KT TEMPO 0219/0221 VRB03KT

Observaciones y pronósticos meteorológicos de más de 4000 aeropuertos (mensajes METAR y TAF).

Los puntos amarillos y rojos representan las estaciones disponibles.

Ponga el ratón en el punto deseado para ver el nombre de la estación.

Haga clic para ver las observaciones y los pronósticos meteorológicos.

Para cambiar el mapa : haga clic en los botones verdes con una cruz de color negro para hacer un zoom, en el botón verde con un guión para alejar o en las flechas verdes para mapas adyacentes.


METAR-TAF: